sensor_id;sensor_type;location;lat;lon;timestamp;temperature;humidity
9885;DHT22;4981;50.966;4.842;2024-01-27T00:00:03;3.00;1.00
9885;DHT22;4981;50.966;4.842;2024-01-27T00:04:58;3.90;1.00
9885;DHT22;4981;50.966;4.842;2024-01-27T00:07:25;3.20;1.00
9885;DHT22;4981;50.966;4.842;2024-01-27T00:09:53;3.50;1.00
9885;DHT22;4981;50.966;4.842;2024-01-27T00:12:22;3.70;1.00
9885;DHT22;4981;50.966;4.842;2024-01-27T00:14:49;3.00;1.00
9885;DHT22;4981;50.966;4.842;2024-01-27T00:17:16;3.10;1.00
9885;DHT22;4981;50.966;4.842;2024-01-27T00:19:43;3.10;1.00
9885;DHT22;4981;50.966;4.842;2024-01-27T00:22:10;3.20;1.00
9885;DHT22;4981;50.966;4.842;2024-01-27T00:24:37;3.10;1.00
9885;DHT22;4981;50.966;4.842;2024-01-27T00:27:04;3.20;1.00
9885;DHT22;4981;50.966;4.842;2024-01-27T00:31:59;2.90;1.00
9885;DHT22;4981;50.966;4.842;2024-01-27T00:34:26;3.00;1.00
9885;DHT22;4981;50.966;4.842;2024-01-27T00:36:53;3.10;1.00
9885;DHT22;4981;50.966;4.842;2024-01-27T00:39:20;3.00;1.00
9885;DHT22;4981;50.966;4.842;2024-01-27T00:41:48;2.90;1.00
9885;DHT22;4981;50.966;4.842;2024-01-27T00:44:15;2.90;1.00
9885;DHT22;4981;50.966;4.842;2024-01-27T00:46:44;2.60;1.00
9885;DHT22;4981;50.966;4.842;2024-01-27T00:49:11;2.80;1.00
9885;DHT22;4981;50.966;4.842;2024-01-27T00:51:38;2.80;1.00
9885;DHT22;4981;50.966;4.842;2024-01-27T00:54:05;2.90;1.00
9885;DHT22;4981;50.966;4.842;2024-01-27T00:56:32;2.90;1.00
9885;DHT22;4981;50.966;4.842;2024-01-27T00:58:59;2.70;1.00
9885;DHT22;4981;50.966;4.842;2024-01-27T01:01:26;2.90;1.00
9885;DHT22;4981;50.966;4.842;2024-01-27T01:03:56;2.90;1.00
9885;DHT22;4981;50.966;4.842;2024-01-27T01:06:23;2.90;1.00
9885;DHT22;4981;50.966;4.842;2024-01-27T01:08:50;3.00;1.00
9885;DHT22;4981;50.966;4.842;2024-01-27T01:11:17;3.40;1.00
9885;DHT22;4981;50.966;4.842;2024-01-27T01:13:44;2.90;1.00
9885;DHT22;4981;50.966;4.842;2024-01-27T01:16:11;3.00;1.00
9885;DHT22;4981;50.966;4.842;2024-01-27T01:18:38;2.80;1.00
9885;DHT22;4981;50.966;4.842;2024-01-27T01:21:06;2.70;1.00
9885;DHT22;4981;50.966;4.842;2024-01-27T01:23:33;2.60;1.00
9885;DHT22;4981;50.966;4.842;2024-01-27T01:26:01;2.50;1.00
9885;DHT22;4981;50.966;4.842;2024-01-27T01:28:28;2.40;1.00
9885;DHT22;4981;50.966;4.842;2024-01-27T01:30:55;2.60;1.00
9885;DHT22;4981;50.966;4.842;2024-01-27T01:33:22;1.60;1.00
9885;DHT22;4981;50.966;4.842;2024-01-27T01:35:49;2.70;1.00
9885;DHT22;4981;50.966;4.842;2024-01-27T01:38:17;2.60;1.00
9885;DHT22;4981;50.966;4.842;2024-01-27T01:40:44;2.50;1.00
9885;DHT22;4981;50.966;4.842;2024-01-27T01:43:11;2.40;1.00
9885;DHT22;4981;50.966;4.842;2024-01-27T01:45:38;2.50;1.00
9885;DHT22;4981;50.966;4.842;2024-01-27T01:48:06;2.50;1.00
9885;DHT22;4981;50.966;4.842;2024-01-27T01:50:33;2.30;1.00
9885;DHT22;4981;50.966;4.842;2024-01-27T01:53:01;2.60;1.00
9885;DHT22;4981;50.966;4.842;2024-01-27T01:55:29;2.40;1.00
9885;DHT22;4981;50.966;4.842;2024-01-27T01:57:56;2.30;1.00
9885;DHT22;4981;50.966;4.842;2024-01-27T02:00:22;2.40;1.00
9885;DHT22;4981;50.966;4.842;2024-01-27T02:05:19;2.50;1.00
9885;DHT22;4981;50.966;4.842;2024-01-27T02:07:47;2.40;1.00
9885;DHT22;4981;50.966;4.842;2024-01-27T02:10:14;2.30;1.00
9885;DHT22;4981;50.966;4.842;2024-01-27T02:12:43;2.40;1.00
9885;DHT22;4981;50.966;4.842;2024-01-27T02:15:11;2.50;1.00
9885;DHT22;4981;50.966;4.842;2024-01-27T02:17:40;2.50;1.00
9885;DHT22;4981;50.966;4.842;2024-01-27T02:20:07;1.80;1.00
9885;DHT22;4981;50.966;4.842;2024-01-27T02:22:34;2.50;1.00
9885;DHT22;4981;50.966;4.842;2024-01-27T02:25:03;2.40;1.00
9885;DHT22;4981;50.966;4.842;2024-01-27T02:27:31;2.40;1.00
9885;DHT22;4981;50.966;4.842;2024-01-27T02:29:58;2.50;1.00
9885;DHT22;4981;50.966;4.842;2024-01-27T02:32:25;2.50;1.00
9885;DHT22;4981;50.966;4.842;2024-01-27T02:34:52;2.50;1.00
9885;DHT22;4981;50.966;4.842;2024-01-27T02:37:19;2.50;1.00
9885;DHT22;4981;50.966;4.842;2024-01-27T02:39:46;2.50;1.00
9885;DHT22;4981;50.966;4.842;2024-01-27T02:42:14;2.60;1.00
9885;DHT22;4981;50.966;4.842;2024-01-27T02:44:41;2.20;1.00
9885;DHT22;4981;50.966;4.842;2024-01-27T02:47:08;2.00;1.00
9885;DHT22;4981;50.966;4.842;2024-01-27T02:49:35;1.90;1.00
9885;DHT22;4981;50.966;4.842;2024-01-27T02:52:02;2.10;1.00
9885;DHT22;4981;50.966;4.842;2024-01-27T02:54:29;2.00;1.00
9885;DHT22;4981;50.966;4.842;2024-01-27T02:56:56;1.50;1.00
9885;DHT22;4981;50.966;4.842;2024-01-27T02:59:24;1.50;1.00
9885;DHT22;4981;50.966;4.842;2024-01-27T03:01:51;1.50;1.00
9885;DHT22;4981;50.966;4.842;2024-01-27T03:04:18;1.50;1.00
9885;DHT22;4981;50.966;4.842;2024-01-27T03:06:45;1.20;1.00
9885;DHT22;4981;50.966;4.842;2024-01-27T03:09:12;1.80;1.00
9885;DHT22;4981;50.966;4.842;2024-01-27T03:11:39;1.80;1.00
9885;DHT22;4981;50.966;4.842;2024-01-27T03:14:06;2.00;1.00
9885;DHT22;4981;50.966;4.842;2024-01-27T03:16:34;2.00;1.00
9885;DHT22;4981;50.966;4.842;2024-01-27T03:19:01;2.00;1.00
9885;DHT22;4981;50.966;4.842;2024-01-27T03:21:29;1.80;1.00
9885;DHT22;4981;50.966;4.842;2024-01-27T03:23:56;1.80;1.00
9885;DHT22;4981;50.966;4.842;2024-01-27T03:26:23;1.70;1.00
9885;DHT22;4981;50.966;4.842;2024-01-27T03:28:50;1.50;1.00
9885;DHT22;4981;50.966;4.842;2024-01-27T03:31:17;1.70;1.00
9885;DHT22;4981;50.966;4.842;2024-01-27T03:33:46;1.90;1.00
9885;DHT22;4981;50.966;4.842;2024-01-27T03:36:13;1.90;1.00
9885;DHT22;4981;50.966;4.842;2024-01-27T03:38:41;1.80;1.00
9885;DHT22;4981;50.966;4.842;2024-01-27T03:41:08;2.10;1.00
9885;DHT22;4981;50.966;4.842;2024-01-27T03:43:34;1.70;1.00
9885;DHT22;4981;50.966;4.842;2024-01-27T03:46:02;1.70;1.00
9885;DHT22;4981;50.966;4.842;2024-01-27T03:48:29;1.30;1.00
9885;DHT22;4981;50.966;4.842;2024-01-27T03:50:57;1.50;1.00
9885;DHT22;4981;50.966;4.842;2024-01-27T03:53:24;1.80;1.00
9885;DHT22;4981;50.966;4.842;2024-01-27T03:55:51;1.80;1.00
9885;DHT22;4981;50.966;4.842;2024-01-27T03:58:17;1.90;1.00
9885;DHT22;4981;50.966;4.842;2024-01-27T04:00:45;2.00;1.00
9885;DHT22;4981;50.966;4.842;2024-01-27T04:03:12;1.90;1.00
9885;DHT22;4981;50.966;4.842;2024-01-27T04:05:39;2.00;1.00
9885;DHT22;4981;50.966;4.842;2024-01-27T04:08:07;1.60;1.00
9885;DHT22;4981;50.966;4.842;2024-01-27T04:10:35;1.70;1.00
9885;DHT22;4981;50.966;4.842;2024-01-27T04:13:03;1.80;1.00
9885;DHT22;4981;50.966;4.842;2024-01-27T04:15:30;1.60;1.00
9885;DHT22;4981;50.966;4.842;2024-01-27T04:18:03;1.60;1.00
9885;DHT22;4981;50.966;4.842;2024-01-27T04:20:30;1.60;1.00
9885;DHT22;4981;50.966;4.842;2024-01-27T04:22:57;1.60;1.00
9885;DHT22;4981;50.966;4.842;2024-01-27T04:25:25;1.60;1.00
9885;DHT22;4981;50.966;4.842;2024-01-27T04:27:52;1.50;1.00
9885;DHT22;4981;50.966;4.842;2024-01-27T04:30:19;1.60;1.00
9885;DHT22;4981;50.966;4.842;2024-01-27T04:32:46;1.60;1.00
9885;DHT22;4981;50.966;4.842;2024-01-27T04:35:15;1.50;1.00
9885;DHT22;4981;50.966;4.842;2024-01-27T04:37:42;1.70;1.00
9885;DHT22;4981;50.966;4.842;2024-01-27T04:40:10;1.70;1.00
9885;DHT22;4981;50.966;4.842;2024-01-27T04:42:39;1.80;1.00
9885;DHT22;4981;50.966;4.842;2024-01-27T04:45:07;1.80;1.00
9885;DHT22;4981;50.966;4.842;2024-01-27T04:47:34;1.90;1.00
9885;DHT22;4981;50.966;4.842;2024-01-27T04:50:01;1.90;1.00
9885;DHT22;4981;50.966;4.842;2024-01-27T04:52:28;2.60;1.00
9885;DHT22;4981;50.966;4.842;2024-01-27T04:54:55;1.80;1.00
9885;DHT22;4981;50.966;4.842;2024-01-27T04:57:23;1.90;1.00
9885;DHT22;4981;50.966;4.842;2024-01-27T04:59:51;1.90;1.00
9885;DHT22;4981;50.966;4.842;2024-01-27T05:02:18;1.80;1.00
9885;DHT22;4981;50.966;4.842;2024-01-27T05:04:45;2.50;1.00
9885;DHT22;4981;50.966;4.842;2024-01-27T05:07:12;1.70;1.00
9885;DHT22;4981;50.966;4.842;2024-01-27T05:09:40;1.70;1.00
9885;DHT22;4981;50.966;4.842;2024-01-27T05:12:07;1.60;1.00
9885;DHT22;4981;50.966;4.842;2024-01-27T05:14:34;1.50;1.00
9885;DHT22;4981;50.966;4.842;2024-01-27T05:17:03;1.40;1.00
9885;DHT22;4981;50.966;4.842;2024-01-27T05:19:33;1.40;1.00
9885;DHT22;4981;50.966;4.842;2024-01-27T05:21:59;1.20;1.00
9885;DHT22;4981;50.966;4.842;2024-01-27T05:24:26;1.50;1.00
9885;DHT22;4981;50.966;4.842;2024-01-27T05:26:53;1.20;1.00
9885;DHT22;4981;50.966;4.842;2024-01-27T05:29:20;1.40;1.00
9885;DHT22;4981;50.966;4.842;2024-01-27T05:31:47;1.50;1.00
9885;DHT22;4981;50.966;4.842;2024-01-27T05:34:16;1.40;1.00
9885;DHT22;4981;50.966;4.842;2024-01-27T05:36:43;1.60;1.00
9885;DHT22;4981;50.966;4.842;2024-01-27T05:39:10;1.20;1.00
9885;DHT22;4981;50.966;4.842;2024-01-27T05:41:37;1.30;1.00
9885;DHT22;4981;50.966;4.842;2024-01-27T05:44:04;1.40;1.00
9885;DHT22;4981;50.966;4.842;2024-01-27T05:46:31;1.40;1.00
9885;DHT22;4981;50.966;4.842;2024-01-27T05:48:58;1.30;1.00
9885;DHT22;4981;50.966;4.842;2024-01-27T05:51:30;1.40;1.00
9885;DHT22;4981;50.966;4.842;2024-01-27T05:53:57;1.40;1.00
9885;DHT22;4981;50.966;4.842;2024-01-27T05:56:23;1.20;1.00
9885;DHT22;4981;50.966;4.842;2024-01-27T05:58:50;1.00;1.00
9885;DHT22;4981;50.966;4.842;2024-01-27T06:01:18;1.30;1.00
9885;DHT22;4981;50.966;4.842;2024-01-27T06:03:45;1.20;1.00
9885;DHT22;4981;50.966;4.842;2024-01-27T06:06:12;1.20;1.00
9885;DHT22;4981;50.966;4.842;2024-01-27T06:08:41;1.50;1.00
9885;DHT22;4981;50.966;4.842;2024-01-27T06:11:08;1.40;1.00
9885;DHT22;4981;50.966;4.842;2024-01-27T06:13:34;1.50;1.00
9885;DHT22;4981;50.966;4.842;2024-01-27T06:16:06;1.50;1.00
9885;DHT22;4981;50.966;4.842;2024-01-27T06:18:34;1.40;1.00
9885;DHT22;4981;50.966;4.842;2024-01-27T06:21:02;1.40;1.00
9885;DHT22;4981;50.966;4.842;2024-01-27T06:23:29;1.40;1.00
9885;DHT22;4981;50.966;4.842;2024-01-27T06:25:57;1.40;1.00
9885;DHT22;4981;50.966;4.842;2024-01-27T06:28:25;1.20;1.00
9885;DHT22;4981;50.966;4.842;2024-01-27T06:30:51;1.20;1.00
9885;DHT22;4981;50.966;4.842;2024-01-27T06:33:18;1.10;1.00
9885;DHT22;4981;50.966;4.842;2024-01-27T06:35:45;0.90;1.00
9885;DHT22;4981;50.966;4.842;2024-01-27T06:38:12;1.00;1.00
9885;DHT22;4981;50.966;4.842;2024-01-27T06:40:39;1.00;1.00
9885;DHT22;4981;50.966;4.842;2024-01-27T06:43:11;0.90;1.00
9885;DHT22;4981;50.966;4.842;2024-01-27T06:50:34;0.70;1.00
9885;DHT22;4981;50.966;4.842;2024-01-27T06:53:01;1.00;1.00
9885;DHT22;4981;50.966;4.842;2024-01-27T06:55:28;1.30;1.00
9885;DHT22;4981;50.966;4.842;2024-01-27T06:57:55;1.10;1.00
9885;DHT22;4981;50.966;4.842;2024-01-27T07:02:51;1.10;1.00
9885;DHT22;4981;50.966;4.842;2024-01-27T07:07:46;1.20;1.00
9885;DHT22;4981;50.966;4.842;2024-01-27T07:10:14;1.50;1.00
9885;DHT22;4981;50.966;4.842;2024-01-27T07:12:41;1.40;1.00
9885;DHT22;4981;50.966;4.842;2024-01-27T07:15:08;1.00;1.00
9885;DHT22;4981;50.966;4.842;2024-01-27T07:17:36;1.50;1.00
9885;DHT22;4981;50.966;4.842;2024-01-27T07:20:04;1.30;1.00
9885;DHT22;4981;50.966;4.842;2024-01-27T07:22:32;1.50;1.00
9885;DHT22;4981;50.966;4.842;2024-01-27T07:24:59;1.20;1.00
9885;DHT22;4981;50.966;4.842;2024-01-27T07:27:26;1.00;1.00
9885;DHT22;4981;50.966;4.842;2024-01-27T07:34:49;1.10;1.00
9885;DHT22;4981;50.966;4.842;2024-01-27T07:37:16;1.40;1.00
9885;DHT22;4981;50.966;4.842;2024-01-27T07:39:43;1.10;1.00
9885;DHT22;4981;50.966;4.842;2024-01-27T07:42:10;1.90;1.00
9885;DHT22;4981;50.966;4.842;2024-01-27T07:44:38;1.30;1.00
9885;DHT22;4981;50.966;4.842;2024-01-27T07:47:05;1.50;1.00
9885;DHT22;4981;50.966;4.842;2024-01-27T07:49:32;1.70;1.00
9885;DHT22;4981;50.966;4.842;2024-01-27T07:52:01;1.30;1.00
9885;DHT22;4981;50.966;4.842;2024-01-27T07:54:30;1.60;1.00
9885;DHT22;4981;50.966;4.842;2024-01-27T07:56:58;1.70;1.00
9885;DHT22;4981;50.966;4.842;2024-01-27T07:59:25;1.50;1.00
9885;DHT22;4981;50.966;4.842;2024-01-27T08:01:52;1.50;1.00
9885;DHT22;4981;50.966;4.842;2024-01-27T08:06:47;1.60;1.00
9885;DHT22;4981;50.966;4.842;2024-01-27T08:09:16;2.20;1.00
9885;DHT22;4981;50.966;4.842;2024-01-27T08:16:38;1.80;1.00
9885;DHT22;4981;50.966;4.842;2024-01-27T08:19:05;2.00;1.00
9885;DHT22;4981;50.966;4.842;2024-01-27T08:21:31;2.10;1.00
9885;DHT22;4981;50.966;4.842;2024-01-27T08:24:00;2.20;1.00
9885;DHT22;4981;50.966;4.842;2024-01-27T08:26:29;2.20;1.00
9885;DHT22;4981;50.966;4.842;2024-01-27T08:28:56;3.30;1.00
9885;DHT22;4981;50.966;4.842;2024-01-27T08:31:24;2.30;1.00
9885;DHT22;4981;50.966;4.842;2024-01-27T08:36:19;2.20;1.00
9885;DHT22;4981;50.966;4.842;2024-01-27T08:38:48;2.40;1.00
9885;DHT22;4981;50.966;4.842;2024-01-27T08:41:15;2.40;1.00
9885;DHT22;4981;50.966;4.842;2024-01-27T08:43:43;2.50;1.00
9885;DHT22;4981;50.966;4.842;2024-01-27T08:46:10;2.60;1.00
9885;DHT22;4981;50.966;4.842;2024-01-27T08:48:39;2.50;1.00
9885;DHT22;4981;50.966;4.842;2024-01-27T08:51:08;2.70;1.00
9885;DHT22;4981;50.966;4.842;2024-01-27T08:53:35;2.60;1.00
9885;DHT22;4981;50.966;4.842;2024-01-27T08:56:02;2.60;1.00
9885;DHT22;4981;50.966;4.842;2024-01-27T08:58:30;2.60;1.00
9885;DHT22;4981;50.966;4.842;2024-01-27T09:00:58;2.80;1.00
9885;DHT22;4981;50.966;4.842;2024-01-27T09:03:31;2.90;1.00
9885;DHT22;4981;50.966;4.842;2024-01-27T09:05:57;3.00;1.00
9885;DHT22;4981;50.966;4.842;2024-01-27T09:08:24;3.00;1.00
9885;DHT22;4981;50.966;4.842;2024-01-27T09:10:51;3.10;1.00
9885;DHT22;4981;50.966;4.842;2024-01-27T09:13:18;3.00;1.00
9885;DHT22;4981;50.966;4.842;2024-01-27T09:15:45;3.20;1.00
9885;DHT22;4981;50.966;4.842;2024-01-27T09:20:42;3.20;1.00
9885;DHT22;4981;50.966;4.842;2024-01-27T09:25:37;3.60;1.00
9885;DHT22;4981;50.966;4.842;2024-01-27T09:28:05;3.60;1.00
9885;DHT22;4981;50.966;4.842;2024-01-27T09:35:27;3.70;1.00
9885;DHT22;4981;50.966;4.842;2024-01-27T09:37:54;3.90;1.00
9885;DHT22;4981;50.966;4.842;2024-01-27T09:40:21;3.90;1.00
9885;DHT22;4981;50.966;4.842;2024-01-27T09:42:51;3.60;1.00
9885;DHT22;4981;50.966;4.842;2024-01-27T09:45:19;4.30;1.00
9885;DHT22;4981;50.966;4.842;2024-01-27T09:50:14;4.30;1.00
9885;DHT22;4981;50.966;4.842;2024-01-27T09:52:45;4.30;1.00
9885;DHT22;4981;50.966;4.842;2024-01-27T09:55:12;4.30;1.00
9885;DHT22;4981;50.966;4.842;2024-01-27T09:57:40;4.40;1.00
9885;DHT22;4981;50.966;4.842;2024-01-27T10:00:09;4.50;1.00
9885;DHT22;4981;50.966;4.842;2024-01-27T10:02:39;4.60;1.00
9885;DHT22;4981;50.966;4.842;2024-01-27T10:05:08;4.70;1.00
9885;DHT22;4981;50.966;4.842;2024-01-27T10:10:05;5.10;1.00
9885;DHT22;4981;50.966;4.842;2024-01-27T10:12:33;4.90;1.00
9885;DHT22;4981;50.966;4.842;2024-01-27T10:15:05;5.00;1.00
9885;DHT22;4981;50.966;4.842;2024-01-27T10:17:32;5.00;1.00
9885;DHT22;4981;50.966;4.842;2024-01-27T10:20:02;5.20;1.00
9885;DHT22;4981;50.966;4.842;2024-01-27T10:22:37;5.10;1.00
9885;DHT22;4981;50.966;4.842;2024-01-27T10:25:07;5.20;1.00
9885;DHT22;4981;50.966;4.842;2024-01-27T10:27:35;5.30;1.00
9885;DHT22;4981;50.966;4.842;2024-01-27T10:30:02;5.50;1.00
9885;DHT22;4981;50.966;4.842;2024-01-27T10:32:29;5.70;1.00
9885;DHT22;4981;50.966;4.842;2024-01-27T10:35:04;5.60;1.00
9885;DHT22;4981;50.966;4.842;2024-01-27T10:37:31;5.70;1.00
9885;DHT22;4981;50.966;4.842;2024-01-27T10:40:03;5.70;1.00
9885;DHT22;4981;50.966;4.842;2024-01-27T10:42:31;5.60;1.00
9885;DHT22;4981;50.966;4.842;2024-01-27T10:44:58;5.70;1.00
9885;DHT22;4981;50.966;4.842;2024-01-27T10:47:27;5.90;1.00
9885;DHT22;4981;50.966;4.842;2024-01-27T10:49:56;5.80;1.00
9885;DHT22;4981;50.966;4.842;2024-01-27T10:52:24;5.90;1.00
9885;DHT22;4981;50.966;4.842;2024-01-27T10:54:58;6.00;1.00
9885;DHT22;4981;50.966;4.842;2024-01-27T10:57:26;6.00;1.00
9885;DHT22;4981;50.966;4.842;2024-01-27T10:59:56;6.00;1.00
9885;DHT22;4981;50.966;4.842;2024-01-27T11:02:23;6.30;1.00
9885;DHT22;4981;50.966;4.842;2024-01-27T11:04:51;6.30;1.00
9885;DHT22;4981;50.966;4.842;2024-01-27T11:07:20;6.40;1.00
9885;DHT22;4981;50.966;4.842;2024-01-27T11:09:49;6.40;1.00
9885;DHT22;4981;50.966;4.842;2024-01-27T11:12:19;6.50;1.00
9885;DHT22;4981;50.966;4.842;2024-01-27T11:14:47;6.50;1.00
9885;DHT22;4981;50.966;4.842;2024-01-27T11:17:16;6.60;1.00
9885;DHT22;4981;50.966;4.842;2024-01-27T11:19:44;6.60;1.00
9885;DHT22;4981;50.966;4.842;2024-01-27T11:22:23;6.50;1.00
9885;DHT22;4981;50.966;4.842;2024-01-27T11:24:51;6.50;1.00
9885;DHT22;4981;50.966;4.842;2024-01-27T11:27:18;6.70;1.00
9885;DHT22;4981;50.966;4.842;2024-01-27T11:29:47;6.70;1.00
9885;DHT22;4981;50.966;4.842;2024-01-27T11:32:16;6.70;1.00
9885;DHT22;4981;50.966;4.842;2024-01-27T11:34:43;6.80;1.00
9885;DHT22;4981;50.966;4.842;2024-01-27T11:37:12;6.90;1.00
9885;DHT22;4981;50.966;4.842;2024-01-27T11:39:39;6.80;1.00
9885;DHT22;4981;50.966;4.842;2024-01-27T11:42:06;7.00;1.00
9885;DHT22;4981;50.966;4.842;2024-01-27T11:44:34;7.10;1.00
9885;DHT22;4981;50.966;4.842;2024-01-27T11:47:01;7.10;1.00
9885;DHT22;4981;50.966;4.842;2024-01-27T11:49:30;7.40;1.00
9885;DHT22;4981;50.966;4.842;2024-01-27T11:51:57;7.80;1.00
9885;DHT22;4981;50.966;4.842;2024-01-27T11:54:24;8.00;1.00
9885;DHT22;4981;50.966;4.842;2024-01-27T11:56:52;8.20;1.00
9885;DHT22;4981;50.966;4.842;2024-01-27T11:59:18;8.40;1.00
9885;DHT22;4981;50.966;4.842;2024-01-27T12:01:47;8.40;1.00
9885;DHT22;4981;50.966;4.842;2024-01-27T12:04:14;8.50;1.00
9885;DHT22;4981;50.966;4.842;2024-01-27T12:06:43;8.10;1.00
9885;DHT22;4981;50.966;4.842;2024-01-27T12:09:10;8.40;1.00
9885;DHT22;4981;50.966;4.842;2024-01-27T12:11:39;8.70;1.00
9885;DHT22;4981;50.966;4.842;2024-01-27T12:14:07;8.50;1.00
9885;DHT22;4981;50.966;4.842;2024-01-27T12:16:34;8.50;1.00
9885;DHT22;4981;50.966;4.842;2024-01-27T12:19:01;7.80;1.00
9885;DHT22;4981;50.966;4.842;2024-01-27T12:21:29;7.80;1.00
9885;DHT22;4981;50.966;4.842;2024-01-27T12:23:57;8.10;1.00
9885;DHT22;4981;50.966;4.842;2024-01-27T12:26:28;8.20;1.00
9885;DHT22;4981;50.966;4.842;2024-01-27T12:28:55;8.10;1.00
9885;DHT22;4981;50.966;4.842;2024-01-27T12:31:22;8.10;1.00
9885;DHT22;4981;50.966;4.842;2024-01-27T12:33:50;8.00;1.00
9885;DHT22;4981;50.966;4.842;2024-01-27T12:36:18;7.90;1.00
9885;DHT22;4981;50.966;4.842;2024-01-27T12:38:58;8.10;1.00
9885;DHT22;4981;50.966;4.842;2024-01-27T12:41:26;8.20;1.00
9885;DHT22;4981;50.966;4.842;2024-01-27T12:43:53;8.20;1.00
9885;DHT22;4981;50.966;4.842;2024-01-27T12:46:20;8.10;1.00
9885;DHT22;4981;50.966;4.842;2024-01-27T12:48:48;7.90;1.00
9885;DHT22;4981;50.966;4.842;2024-01-27T12:51:15;7.90;1.00
9885;DHT22;4981;50.966;4.842;2024-01-27T12:53:42;7.80;1.00
9885;DHT22;4981;50.966;4.842;2024-01-27T12:56:12;7.90;1.00
9885;DHT22;4981;50.966;4.842;2024-01-27T12:58:40;8.00;1.00
9885;DHT22;4981;50.966;4.842;2024-01-27T13:01:08;8.20;1.00
9885;DHT22;4981;50.966;4.842;2024-01-27T13:03:35;8.00;1.00
9885;DHT22;4981;50.966;4.842;2024-01-27T13:06:02;7.90;1.00
9885;DHT22;4981;50.966;4.842;2024-01-27T13:08:29;8.10;1.00
9885;DHT22;4981;50.966;4.842;2024-01-27T13:10:56;8.10;1.00
9885;DHT22;4981;50.966;4.842;2024-01-27T13:13:25;8.10;1.00
9885;DHT22;4981;50.966;4.842;2024-01-27T13:15:52;8.30;1.00
9885;DHT22;4981;50.966;4.842;2024-01-27T13:18:19;8.70;1.00
9885;DHT22;4981;50.966;4.842;2024-01-27T13:20:46;8.40;1.00
9885;DHT22;4981;50.966;4.842;2024-01-27T13:23:13;8.30;1.00
9885;DHT22;4981;50.966;4.842;2024-01-27T13:25:40;8.30;1.00
9885;DHT22;4981;50.966;4.842;2024-01-27T13:28:07;8.40;1.00
9885;DHT22;4981;50.966;4.842;2024-01-27T13:30:38;8.60;1.00
9885;DHT22;4981;50.966;4.842;2024-01-27T13:33:05;8.60;1.00
9885;DHT22;4981;50.966;4.842;2024-01-27T13:35:32;8.80;1.00
9885;DHT22;4981;50.966;4.842;2024-01-27T13:37:59;8.70;1.00
9885;DHT22;4981;50.966;4.842;2024-01-27T13:40:26;8.80;1.00
9885;DHT22;4981;50.966;4.842;2024-01-27T13:42:53;8.80;1.00
9885;DHT22;4981;50.966;4.842;2024-01-27T13:45:21;8.80;1.00
9885;DHT22;4981;50.966;4.842;2024-01-27T13:47:49;8.60;1.00
9885;DHT22;4981;50.966;4.842;2024-01-27T13:50:16;8.70;1.00
9885;DHT22;4981;50.966;4.842;2024-01-27T13:52:43;8.90;1.00
9885;DHT22;4981;50.966;4.842;2024-01-27T14:00:07;8.90;1.00
9885;DHT22;4981;50.966;4.842;2024-01-27T14:02:35;8.70;1.00
9885;DHT22;4981;50.966;4.842;2024-01-27T14:07:32;9.20;1.00
9885;DHT22;4981;50.966;4.842;2024-01-27T14:09:59;9.20;1.00
9885;DHT22;4981;50.966;4.842;2024-01-27T14:12:27;9.40;1.00
9885;DHT22;4981;50.966;4.842;2024-01-27T14:17:29;8.90;1.00
9885;DHT22;4981;50.966;4.842;2024-01-27T14:22:24;8.60;1.00
9885;DHT22;4981;50.966;4.842;2024-01-27T14:24:51;8.50;1.00
9885;DHT22;4981;50.966;4.842;2024-01-27T14:27:18;8.60;1.00
9885;DHT22;4981;50.966;4.842;2024-01-27T14:32:18;8.70;1.00
9885;DHT22;4981;50.966;4.842;2024-01-27T14:34:45;8.60;1.00
9885;DHT22;4981;50.966;4.842;2024-01-27T14:37:12;9.00;1.00
9885;DHT22;4981;50.966;4.842;2024-01-27T14:39:43;8.90;1.00
9885;DHT22;4981;50.966;4.842;2024-01-27T14:42:11;9.00;1.00
9885;DHT22;4981;50.966;4.842;2024-01-27T14:44:38;9.20;1.00
9885;DHT22;4981;50.966;4.842;2024-01-27T14:49:33;9.00;1.00
9885;DHT22;4981;50.966;4.842;2024-01-27T14:52:02;8.90;1.00
9885;DHT22;4981;50.966;4.842;2024-01-27T14:56:57;8.70;1.00
9885;DHT22;4981;50.966;4.842;2024-01-27T14:59:24;9.00;1.00
9885;DHT22;4981;50.966;4.842;2024-01-27T15:01:52;8.70;1.00
9885;DHT22;4981;50.966;4.842;2024-01-27T15:04:18;9.00;1.00
9885;DHT22;4981;50.966;4.842;2024-01-27T15:06:46;8.80;1.00
9885;DHT22;4981;50.966;4.842;2024-01-27T15:09:13;8.90;1.00
9885;DHT22;4981;50.966;4.842;2024-01-27T15:11:54;8.70;1.00
9885;DHT22;4981;50.966;4.842;2024-01-27T15:14:22;8.50;1.00
9885;DHT22;4981;50.966;4.842;2024-01-27T15:19:16;8.50;1.00
9885;DHT22;4981;50.966;4.842;2024-01-27T15:21:43;8.80;1.00
9885;DHT22;4981;50.966;4.842;2024-01-27T15:24:11;8.10;1.00
9885;DHT22;4981;50.966;4.842;2024-01-27T15:26:38;8.00;1.00
9885;DHT22;4981;50.966;4.842;2024-01-27T15:29:05;7.90;1.00
9885;DHT22;4981;50.966;4.842;2024-01-27T15:31:33;7.90;1.00
9885;DHT22;4981;50.966;4.842;2024-01-27T15:34:00;7.60;1.00
9885;DHT22;4981;50.966;4.842;2024-01-27T15:41:23;7.40;1.00
9885;DHT22;4981;50.966;4.842;2024-01-27T15:43:50;7.20;1.00
9885;DHT22;4981;50.966;4.842;2024-01-27T15:46:17;7.70;1.00
9885;DHT22;4981;50.966;4.842;2024-01-27T15:48:45;7.50;1.00
9885;DHT22;4981;50.966;4.842;2024-01-27T15:51:12;7.30;1.00
9885;DHT22;4981;50.966;4.842;2024-01-27T15:56:06;6.80;1.00
9885;DHT22;4981;50.966;4.842;2024-01-27T16:03:29;6.90;1.00
9885;DHT22;4981;50.966;4.842;2024-01-27T16:05:57;6.80;1.00
9885;DHT22;4981;50.966;4.842;2024-01-27T16:08:24;6.80;1.00
9885;DHT22;4981;50.966;4.842;2024-01-27T16:10:51;6.60;1.00
9885;DHT22;4981;50.966;4.842;2024-01-27T16:13:18;6.40;1.00
9885;DHT22;4981;50.966;4.842;2024-01-27T16:15:45;6.40;1.00
9885;DHT22;4981;50.966;4.842;2024-01-27T16:18:13;6.40;1.00
9885;DHT22;4981;50.966;4.842;2024-01-27T16:20:40;6.40;1.00
9885;DHT22;4981;50.966;4.842;2024-01-27T16:23:08;6.90;1.00
9885;DHT22;4981;50.966;4.842;2024-01-27T16:25:36;6.20;1.00
9885;DHT22;4981;50.966;4.842;2024-01-27T16:28:03;6.30;1.00
9885;DHT22;4981;50.966;4.842;2024-01-27T16:30:30;6.20;1.00
9885;DHT22;4981;50.966;4.842;2024-01-27T16:32:57;6.10;1.00
9885;DHT22;4981;50.966;4.842;2024-01-27T16:35:24;6.00;1.00
9885;DHT22;4981;50.966;4.842;2024-01-27T16:37:51;5.90;1.00
9885;DHT22;4981;50.966;4.842;2024-01-27T16:40:19;5.80;1.00
9885;DHT22;4981;50.966;4.842;2024-01-27T16:42:47;5.70;1.00
9885;DHT22;4981;50.966;4.842;2024-01-27T16:45:14;5.40;1.00
9885;DHT22;4981;50.966;4.842;2024-01-27T16:47:41;5.70;1.00
9885;DHT22;4981;50.966;4.842;2024-01-27T16:50:08;5.60;1.00
9885;DHT22;4981;50.966;4.842;2024-01-27T16:52:36;5.60;1.00
9885;DHT22;4981;50.966;4.842;2024-01-27T17:07:28;5.40;1.00
9885;DHT22;4981;50.966;4.842;2024-01-27T17:09:55;5.50;1.00
9885;DHT22;4981;50.966;4.842;2024-01-27T17:12:22;3.30;1.00
9885;DHT22;4981;50.966;4.842;2024-01-27T17:14:50;3.90;1.00
9885;DHT22;4981;50.966;4.842;2024-01-27T17:17:18;5.40;1.00
9885;DHT22;4981;50.966;4.842;2024-01-27T17:19:45;5.20;1.00
9885;DHT22;4981;50.966;4.842;2024-01-27T17:22:12;5.30;1.00
9885;DHT22;4981;50.966;4.842;2024-01-27T17:24:40;5.20;1.00
9885;DHT22;4981;50.966;4.842;2024-01-27T17:27:07;4.90;1.00
9885;DHT22;4981;50.966;4.842;2024-01-27T17:29:34;5.00;1.00
9885;DHT22;4981;50.966;4.842;2024-01-27T17:34:30;4.80;1.00
9885;DHT22;4981;50.966;4.842;2024-01-27T17:36:57;5.00;1.00
9885;DHT22;4981;50.966;4.842;2024-01-27T17:39:24;4.80;1.00
9885;DHT22;4981;50.966;4.842;2024-01-27T17:41:51;5.50;1.00
9885;DHT22;4981;50.966;4.842;2024-01-27T17:44:18;4.90;1.00
9885;DHT22;4981;50.966;4.842;2024-01-27T17:46:45;4.80;1.00
9885;DHT22;4981;50.966;4.842;2024-01-27T17:49:13;5.00;1.00
9885;DHT22;4981;50.966;4.842;2024-01-27T17:56:41;4.90;1.00
9885;DHT22;4981;50.966;4.842;2024-01-27T18:01:35;4.80;1.00
9885;DHT22;4981;50.966;4.842;2024-01-27T18:04:03;4.90;1.00
9885;DHT22;4981;50.966;4.842;2024-01-27T18:06:32;4.60;1.00
9885;DHT22;4981;50.966;4.842;2024-01-27T18:16:20;4.50;1.00
9885;DHT22;4981;50.966;4.842;2024-01-27T18:18:49;4.80;1.00
9885;DHT22;4981;50.966;4.842;2024-01-27T18:21:16;4.60;1.00
9885;DHT22;4981;50.966;4.842;2024-01-27T18:23:44;5.20;1.00
9885;DHT22;4981;50.966;4.842;2024-01-27T18:26:11;4.70;1.00